Time;durP1;ratioP1;P1;durP2;ratioP2;P2;SDS_P1;SDS_P2;PMS_P1;PMS_P2;Temp;Humidity;BMP_temperature;BMP_pressure;BME280_temperature;BME280_humidity;BME280_pressure;Samples;Min_cycle;Max_cycle;Signal;HPM_P1;HPM_P2
2022/01/07 00:01:35;;;;;;;12.10;7.35;;;;;;;;;;5020658;28;20470;-78
2022/01/07 00:04:01;;;;;;;8.95;4.18;;;;;;;;;;5022200;28;20030;-77
2022/01/07 00:06:27;;;;;;;9.23;3.75;;;;;;;;;;5021366;28;20089;-77
2022/01/07 00:08:54;;;;;;;8.10;4.30;;;;;;;;;;5022606;28;20485;-77
2022/01/07 00:11:20;;;;;;;6.43;3.63;;;;;;;;;;5023173;28;20077;-78
2022/01/07 00:13:47;;;;;;;7.15;4.50;;;;;;;;;;5023061;28;20551;-77
2022/01/07 00:16:13;;;;;;;7.35;4.32;;;;;;;;;;5022306;28;20057;-78
2022/01/07 00:18:41;;;;;;;8.00;4.53;;;;;;;;;;5023676;28;20026;-79
2022/01/07 00:21:08;;;;;;;8.82;4.97;;;;;;;;;;5022261;28;20098;-78
2022/01/07 00:23:34;;;;;;;10.98;5.65;;;;;;;;;;5021768;28;20123;-78
2022/01/07 00:26:00;;;;;;;10.18;5.55;;;;;;;;;;5021938;28;20026;-78
2022/01/07 00:28:28;;;;;;;7.60;4.25;;;;;;;;;;5021960;28;20022;-78
2022/01/07 00:30:55;;;;;;;7.03;4.25;;;;;;;;;;5021985;28;20033;-78
2022/01/07 00:33:21;;;;;;;7.05;4.15;;;;;;;;;;5022974;28;20018;-78
2022/01/07 00:35:47;;;;;;;6.82;3.50;;;;;;;;;;5022518;28;20125;-78
2022/01/07 00:38:13;;;;;;;10.13;4.72;;;;;;;;;;5023490;28;20022;-78
2022/01/07 00:40:39;;;;;;;10.65;6.00;;;;;;;;;;5022640;28;20033;-78
2022/01/07 00:43:06;;;;;;;8.77;5.03;;;;;;;;;;5022390;28;20451;-79
2022/01/07 00:45:33;;;;;;;10.57;5.55;;;;;;;;;;5020594;28;20030;-77
2022/01/07 00:47:59;;;;;;;8.13;4.50;;;;;;;;;;5021577;28;20112;-79
2022/01/07 00:50:27;;;;;;;8.05;4.40;;;;;;;;;;5021750;28;20472;-79
2022/01/07 00:52:53;;;;;;;8.70;4.43;;;;;;;;;;5021312;28;20045;-78
2022/01/07 00:55:19;;;;;;;7.97;4.47;;;;;;;;;;5021562;28;20050;-78
2022/01/07 00:57:45;;;;;;;6.75;4.47;;;;;;;;;;5020885;28;20026;-77
2022/01/07 01:00:14;;;;;;;7.07;3.97;;;;;;;;;;5021599;28;20030;-78
2022/01/07 01:02:40;;;;;;;9.63;5.35;;;;;;;;;;5020109;28;20034;-78
2022/01/07 01:05:07;;;;;;;9.05;4.63;;;;;;;;;;5020171;28;20030;-78
2022/01/07 01:07:33;;;;;;;12.90;5.15;;;;;;;;;;5020747;28;20053;-77
2022/01/07 01:10:01;;;;;;;35.67;18.55;;;;;;;;;;5022399;28;20026;-78
2022/01/07 01:12:27;;;;;;;12.30;7.03;;;;;;;;;;5021996;28;20395;-78
2022/01/07 01:14:53;;;;;;;12.02;6.88;;;;;;;;;;5021939;28;20053;-78
2022/01/07 01:17:19;;;;;;;11.85;6.40;;;;;;;;;;5023782;28;20026;-79
2022/01/07 01:19:45;;;;;;;9.70;6.00;;;;;;;;;;5023367;28;20026;-79
2022/01/07 01:22:11;;;;;;;10.68;6.05;;;;;;;;;;5027102;28;20046;-79
2022/01/07 01:24:38;;;;;;;11.77;6.28;;;;;;;;;;5027190;28;20060;-79
2022/01/07 01:27:04;;;;;;;10.15;5.05;;;;;;;;;;5023364;28;20097;-79
2022/01/07 01:29:32;;;;;;;9.32;5.15;;;;;;;;;;5024526;28;20032;-78
2022/01/07 01:31:58;;;;;;;9.75;5.70;;;;;;;;;;5025311;28;20018;-77
2022/01/07 01:34:24;;;;;;;8.30;4.90;;;;;;;;;;5021364;28;20022;-79
2022/01/07 01:36:50;;;;;;;10.18;4.93;;;;;;;;;;5023485;28;20045;-78
2022/01/07 01:39:16;;;;;;;8.07;4.03;;;;;;;;;;5024274;28;20033;-78
2022/01/07 01:41:43;;;;;;;8.23;4.97;;;;;;;;;;5020684;28;20033;-77
2022/01/07 01:44:09;;;;;;;9.38;5.40;;;;;;;;;;5021460;28;20022;-79
2022/01/07 01:46:35;;;;;;;10.93;5.93;;;;;;;;;;5025914;28;20032;-79
2022/01/07 01:49:02;;;;;;;17.38;6.50;;;;;;;;;;5025923;28;20033;-78
2022/01/07 01:51:28;;;;;;;12.45;6.40;;;;;;;;;;5024033;28;20033;-79
2022/01/07 01:53:54;;;;;;;10.50;5.47;;;;;;;;;;5023863;28;20097;-78
2022/01/07 01:56:20;;;;;;;11.98;6.30;;;;;;;;;;5026833;28;20388;-78
2022/01/07 01:58:46;;;;;;;15.52;7.20;;;;;;;;;;5029311;28;20030;-78
2022/01/07 02:01:12;;;;;;;14.07;6.20;;;;;;;;;;5029766;28;20020;-78
2022/01/07 02:03:38;;;;;;;12.02;5.82;;;;;;;;;;5026064;28;20057;-77
2022/01/07 02:06:05;;;;;;;11.88;6.10;;;;;;;;;;5022996;28;20057;-78
2022/01/07 02:08:31;;;;;;;11.65;5.70;;;;;;;;;;5021531;28;20028;-78
2022/01/07 02:11:00;;;;;;;12.57;6.25;;;;;;;;;;5023775;28;20052;-78
2022/01/07 02:13:26;;;;;;;13.40;6.72;;;;;;;;;;5023407;28;20022;-77
2022/01/07 02:15:52;;;;;;;13.63;6.78;;;;;;;;;;5021962;28;20043;-77
2022/01/07 02:18:18;;;;;;;15.05;7.43;;;;;;;;;;5020634;28;20029;-78
2022/01/07 02:20:45;;;;;;;13.27;6.80;;;;;;;;;;5020688;28;20484;-77
2022/01/07 02:23:11;;;;;;;10.27;5.45;;;;;;;;;;5021650;28;20342;-78
2022/01/07 02:25:38;;;;;;;9.77;5.47;;;;;;;;;;5026577;28;20093;-78
2022/01/07 02:28:04;;;;;;;10.63;5.25;;;;;;;;;;5026534;28;20026;-78
2022/01/07 02:30:31;;;;;;;9.07;4.78;;;;;;;;;;5026446;28;20053;-79
2022/01/07 02:32:57;;;;;;;10.43;4.97;;;;;;;;;;5022152;28;20402;-78
2022/01/07 02:35:25;;;;;;;10.07;6.20;;;;;;;;;;5023318;28;20022;-78
2022/01/07 02:37:51;;;;;;;12.02;6.32;;;;;;;;;;5026469;28;20026;-79
2022/01/07 02:40:17;;;;;;;10.98;5.50;;;;;;;;;;5027913;28;20113;-77
2022/01/07 02:42:44;;;;;;;13.82;6.47;;;;;;;;;;5026508;28;20025;-79
2022/01/07 02:45:10;;;;;;;9.55;5.90;;;;;;;;;;5025654;28;20034;-78
2022/01/07 02:47:49;;;;;;;13.20;6.45;;;;;;;;;;5026607;28;20025;-78
2022/01/07 02:50:17;;;;;;;11.15;5.53;;;;;;;;;;5025972;28;20443;-79
2022/01/07 02:52:43;;;;;;;11.93;5.75;;;;;;;;;;5027549;28;20010;-78
2022/01/07 02:55:09;;;;;;;9.93;5.95;;;;;;;;;;5026274;28;20052;-79
2022/01/07 02:57:35;;;;;;;9.93;5.65;;;;;;;;;;5027591;28;20153;-78
2022/01/07 03:00:02;;;;;;;9.85;5.07;;;;;;;;;;5024725;28;20520;-78
2022/01/07 03:02:29;;;;;;;10.73;5.25;;;;;;;;;;5021470;28;20025;-80
2022/01/07 03:04:55;;;;;;;9.88;5.00;;;;;;;;;;5024166;28;20547;-78
2022/01/07 03:07:21;;;;;;;9.73;4.97;;;;;;;;;;5028698;28;20045;-78
2022/01/07 03:09:49;;;;;;;10.20;5.05;;;;;;;;;;5026214;28;20046;-79
2022/01/07 03:12:16;;;;;;;10.02;4.90;;;;;;;;;;5024089;28;20026;-78
2022/01/07 03:14:42;;;;;;;9.25;5.05;;;;;;;;;;5026689;28;20045;-78
2022/01/07 03:17:08;;;;;;;13.38;5.43;;;;;;;;;;5026267;28;20424;-78
2022/01/07 03:19:36;;;;;;;10.68;4.97;;;;;;;;;;5026228;28;20038;-78
2022/01/07 03:22:02;;;;;;;9.98;5.45;;;;;;;;;;5027221;28;20142;-78
2022/01/07 03:24:28;;;;;;;9.60;5.03;;;;;;;;;;5030268;28;20026;-78
2022/01/07 03:26:54;;;;;;;9.38;5.00;;;;;;;;;;5029400;28;20026;-78
2022/01/07 03:29:21;;;;;;;7.63;4.38;;;;;;;;;;5029530;28;20022;-79
2022/01/07 03:31:47;;;;;;;9.73;4.70;;;;;;;;;;5028350;28;20026;-78
2022/01/07 03:34:13;;;;;;;8.35;4.90;;;;;;;;;;5025489;28;20026;-78
2022/01/07 03:36:39;;;;;;;7.72;4.28;;;;;;;;;;5028271;28;20373;-79
2022/01/07 03:39:06;;;;;;;9.32;5.47;;;;;;;;;;5029731;28;20036;-78
2022/01/07 03:41:32;;;;;;;10.68;4.75;;;;;;;;;;5029076;28;20022;-78
2022/01/07 03:43:58;;;;;;;8.60;4.60;;;;;;;;;;5028605;28;20037;-78
2022/01/07 03:46:24;;;;;;;10.15;4.85;;;;;;;;;;5029389;28;20029;-79
2022/01/07 03:48:50;;;;;;;11.20;5.72;;;;;;;;;;5025725;28;20038;-78
2022/01/07 03:51:16;;;;;;;8.90;5.03;;;;;;;;;;5024301;28;20032;-78
2022/01/07 03:53:45;;;;;;;10.20;4.85;;;;;;;;;;5025829;28;20184;-78
2022/01/07 03:56:17;;;;;;;9.75;5.40;;;;;;;;;;5027565;28;20049;-79
2022/01/07 03:58:43;;;;;;;10.60;5.43;;;;;;;;;;5027153;28;20093;-78
2022/01/07 04:01:09;;;;;;;9.68;5.35;;;;;;;;;;5027564;28;20560;-78
2022/01/07 04:03:35;;;;;;;9.23;4.88;;;;;;;;;;5027046;28;20034;-78
2022/01/07 04:06:01;;;;;;;9.45;5.57;;;;;;;;;;5028001;28;20018;-78
2022/01/07 04:08:27;;;;;;;10.07;5.72;;;;;;;;;;5027853;28;20060;-78
2022/01/07 04:10:54;;;;;;;9.07;5.38;;;;;;;;;;5028271;28;20029;-79
2022/01/07 04:13:20;;;;;;;9.68;5.38;;;;;;;;;;5027742;28;20034;-78
2022/01/07 04:15:46;;;;;;;9.90;5.40;;;;;;;;;;5028647;28;20056;-79
2022/01/07 04:18:12;;;;;;;9.93;6.10;;;;;;;;;;5028007;28;20036;-78
2022/01/07 04:20:38;;;;;;;10.55;5.82;;;;;;;;;;5026901;28;20038;-78
2022/01/07 04:23:06;;;;;;;11.35;5.18;;;;;;;;;;5028796;28;20052;-78
2022/01/07 04:25:32;;;;;;;9.60;5.22;;;;;;;;;;5027113;28;20092;-78
2022/01/07 04:28:02;;;;;;;9.82;5.38;;;;;;;;;;5029585;28;20037;-79
2022/01/07 04:30:30;;;;;;;12.05;6.45;;;;;;;;;;5029017;28;20073;-79
2022/01/07 04:32:57;;;;;;;10.50;5.68;;;;;;;;;;5030415;28;20041;-78
2022/01/07 04:35:23;;;;;;;9.57;5.65;;;;;;;;;;5033156;28;20026;-78
2022/01/07 04:37:49;;;;;;;11.52;5.93;;;;;;;;;;5029219;28;20073;-78
2022/01/07 04:40:19;;;;;;;12.98;6.53;;;;;;;;;;5028905;28;20052;-79
2022/01/07 04:42:45;;;;;;;11.50;6.10;;;;;;;;;;5027624;28;20045;-79
2022/01/07 04:45:12;;;;;;;14.43;6.78;;;;;;;;;;5027424;28;20034;-79
2022/01/07 04:47:39;;;;;;;11.32;6.47;;;;;;;;;;5028336;28;20044;-79
2022/01/07 04:50:06;;;;;;;11.93;6.80;;;;;;;;;;5026440;28;20089;-78
2022/01/07 04:52:32;;;;;;;12.05;7.13;;;;;;;;;;5027766;28;20024;-79
2022/01/07 04:54:58;;;;;;;9.95;6.30;;;;;;;;;;5028198;28;20591;-79
2022/01/07 04:57:24;;;;;;;10.40;5.85;;;;;;;;;;5028969;28;20030;-78
2022/01/07 04:59:50;;;;;;;10.38;5.72;;;;;;;;;;5026480;28;20026;-78
2022/01/07 05:02:19;;;;;;;11.57;6.47;;;;;;;;;;5023024;28;20030;-78
2022/01/07 05:04:46;;;;;;;14.25;8.27;;;;;;;;;;5025135;28;20064;-78
2022/01/07 05:07:12;;;;;;;14.40;8.38;;;;;;;;;;5025682;28;20050;-79
2022/01/07 05:09:38;;;;;;;17.65;7.45;;;;;;;;;;5028496;28;20018;-79
2022/01/07 05:12:04;;;;;;;15.45;7.68;;;;;;;;;;5028449;28;20018;-79
2022/01/07 05:14:30;;;;;;;14.80;8.13;;;;;;;;;;5027063;28;20022;-78
2022/01/07 05:16:57;;;;;;;17.15;9.45;;;;;;;;;;5028364;28;20162;-79
2022/01/07 05:19:23;;;;;;;16.27;9.00;;;;;;;;;;5028802;28;20022;-79
2022/01/07 05:21:50;;;;;;;20.80;8.82;;;;;;;;;;5024813;28;20026;-78
2022/01/07 05:24:16;;;;;;;18.98;9.80;;;;;;;;;;5023706;28;20379;-78
2022/01/07 05:26:42;;;;;;;19.08;10.25;;;;;;;;;;5023033;28;20026;-78
2022/01/07 05:29:08;;;;;;;11.90;6.70;;;;;;;;;;5021059;28;20551;-79
2022/01/07 05:31:34;;;;;;;14.43;6.22;;;;;;;;;;5023094;28;20026;-80
2022/01/07 05:34:00;;;;;;;9.73;5.70;;;;;;;;;;5025293;28;20053;-78
2022/01/07 05:36:26;;;;;;;11.63;6.68;;;;;;;;;;5022420;28;20484;-78
2022/01/07 05:38:52;;;;;;;13.20;6.03;;;;;;;;;;5024534;28;20021;-79
2022/01/07 05:41:19;;;;;;;10.30;6.30;;;;;;;;;;5021584;28;20038;-77
2022/01/07 05:43:45;;;;;;;11.50;6.25;;;;;;;;;;5022840;28;20034;-78
2022/01/07 05:46:14;;;;;;;13.48;7.03;;;;;;;;;;5022929;28;20443;-78
2022/01/07 05:48:41;;;;;;;11.88;7.07;;;;;;;;;;5022875;28;20022;-79
2022/01/07 05:51:08;;;;;;;11.70;6.45;;;;;;;;;;5024296;28;20022;-79
2022/01/07 05:53:34;;;;;;;15.70;8.48;;;;;;;;;;5027430;28;20504;-79
2022/01/07 05:56:02;;;;;;;22.88;11.18;;;;;;;;;;5026878;28;20034;-79
2022/01/07 05:58:28;;;;;;;32.00;14.32;;;;;;;;;;5026752;28;20026;-79
2022/01/07 06:00:55;;;;;;;23.98;12.82;;;;;;;;;;5026104;28;20041;-79
2022/01/07 06:03:21;;;;;;;24.88;13.30;;;;;;;;;;5026902;28;20030;-79
2022/01/07 06:05:47;;;;;;;16.83;8.90;;;;;;;;;;5025652;28;20041;-80
2022/01/07 06:08:13;;;;;;;15.25;7.68;;;;;;;;;;5026088;28;20034;-79
2022/01/07 06:10:39;;;;;;;23.85;13.27;;;;;;;;;;5026506;28;20111;-79
2022/01/07 06:13:08;;;;;;;18.52;11.05;;;;;;;;;;5027574;28;20053;-79
2022/01/07 06:15:35;;;;;;;17.27;10.18;;;;;;;;;;5026471;28;20700;-79
2022/01/07 06:18:05;;;;;;;13.52;7.43;;;;;;;;;;5026586;28;20040;-79
2022/01/07 06:20:31;;;;;;;13.18;6.97;;;;;;;;;;5028967;28;20053;-80
2022/01/07 06:22:57;;;;;;;11.50;6.82;;;;;;;;;;5027323;28;20089;-80
2022/01/07 06:25:23;;;;;;;12.50;7.07;;;;;;;;;;5026162;28;20034;-80
2022/01/07 06:27:49;;;;;;;12.82;7.70;;;;;;;;;;5028058;28;20022;-80
2022/01/07 06:30:15;;;;;;;12.20;7.70;;;;;;;;;;5027348;28;20026;-79
2022/01/07 06:32:42;;;;;;;11.43;6.90;;;;;;;;;;5026334;28;20030;-79
2022/01/07 06:35:12;;;;;;;16.10;8.40;;;;;;;;;;5026860;28;20033;-80
2022/01/07 06:37:38;;;;;;;11.63;7.18;;;;;;;;;;5026593;28;20026;-80
2022/01/07 06:40:05;;;;;;;12.50;7.68;;;;;;;;;;5027222;28;20033;-80
2022/01/07 06:42:31;;;;;;;14.20;8.82;;;;;;;;;;5031014;28;20026;-80
2022/01/07 06:44:57;;;;;;;14.43;8.40;;;;;;;;;;5029928;28;20025;-80
2022/01/07 06:47:23;;;;;;;13.57;7.57;;;;;;;;;;5030831;28;20022;-79
2022/01/07 06:49:50;;;;;;;15.15;9.02;;;;;;;;;;5030512;28;20026;-80
2022/01/07 06:52:16;;;;;;;15.90;8.40;;;;;;;;;;5030340;28;20026;-79
2022/01/07 06:54:42;;;;;;;15.93;8.90;;;;;;;;;;5029938;28;20050;-80
2022/01/07 06:57:08;;;;;;;15.82;8.85;;;;;;;;;;5030284;28;20022;-80
2022/01/07 06:59:34;;;;;;;15.55;8.52;;;;;;;;;;5031438;28;20030;-78
2022/01/07 07:02:00;;;;;;;14.68;8.70;;;;;;;;;;5031143;28;20109;-80
2022/01/07 07:04:28;;;;;;;20.88;9.63;;;;;;;;;;5030090;28;20053;-80
2022/01/07 07:06:55;;;;;;;14.00;8.13;;;;;;;;;;5031323;28;20017;-79
2022/01/07 07:09:21;;;;;;;17.00;9.05;;;;;;;;;;5030955;28;20026;-80
2022/01/07 07:11:47;;;;;;;15.07;7.72;;;;;;;;;;5030633;28;20512;-80
2022/01/07 07:14:13;;;;;;;15.73;8.93;;;;;;;;;;5028965;28;20033;-80
2022/01/07 07:16:39;;;;;;;12.13;7.65;;;;;;;;;;5030010;28;20034;-79
2022/01/07 07:19:06;;;;;;;13.07;7.18;;;;;;;;;;5031381;28;20085;-80
2022/01/07 07:21:32;;;;;;;13.23;7.30;;;;;;;;;;5031337;28;20022;-80
2022/01/07 07:23:58;;;;;;;14.05;8.00;;;;;;;;;;5032951;28;20022;-79
2022/01/07 07:26:24;;;;;;;13.00;7.60;;;;;;;;;;5035458;28;20446;-80
2022/01/07 07:28:50;;;;;;;12.48;7.70;;;;;;;;;;5035263;28;20018;-80
2022/01/07 07:31:18;;;;;;;9.70;6.65;;;;;;;;;;5034069;28;20038;-80
2022/01/07 07:36:27;;;;;;;12.05;7.60;;;;;;;;;;5031494;28;20186;-80
2022/01/07 07:39:02;;;;;;;10.10;6.82;;;;;;;;;;5031634;28;20400;-80
2022/01/07 07:41:29;;;;;;;10.82;7.93;;;;;;;;;;5033080;28;20026;-79
2022/01/07 07:43:59;;;;;;;12.48;7.22;;;;;;;;;;5035929;28;20037;-79
2022/01/07 07:46:26;;;;;;;14.52;8.23;;;;;;;;;;5031058;28;20033;-80
2022/01/07 07:48:52;;;;;;;15.63;9.55;;;;;;;;;;5029516;28;20029;-79
2022/01/07 07:51:19;;;;;;;12.85;7.25;;;;;;;;;;5029222;28;20025;-78
2022/01/07 07:53:45;;;;;;;10.82;6.80;;;;;;;;;;5025358;28;20025;-78
2022/01/07 07:56:13;;;;;;;10.73;6.78;;;;;;;;;;5025297;28;20029;-78
2022/01/07 07:58:39;;;;;;;12.57;6.70;;;;;;;;;;5024466;28;20026;-79
2022/01/07 08:01:06;;;;;;;11.70;7.70;;;;;;;;;;5023962;28;20030;-78
2022/01/07 08:03:32;;;;;;;12.50;8.00;;;;;;;;;;5024147;28;20034;-78
2022/01/07 08:05:58;;;;;;;11.65;7.57;;;;;;;;;;5023768;28;20077;-78
2022/01/07 08:08:24;;;;;;;13.43;8.45;;;;;;;;;;5023071;28;20427;-78
2022/01/07 08:10:54;;;;;;;10.32;7.15;;;;;;;;;;5022791;28;20026;-78
2022/01/07 08:15:58;;;;;;;13.75;8.25;;;;;;;;;;5022085;28;20014;-78
2022/01/07 08:16:10;;;;;;;13.00;6.78;;;;;;;;;;5019946;28;20033;-78
2022/01/07 08:18:37;;;;;;;10.32;6.72;;;;;;;;;;5020255;28;20152;-77
2022/01/07 08:21:04;;;;;;;10.40;5.72;;;;;;;;;;5020613;28;20050;-78
2022/01/07 08:23:34;;;;;;;8.70;5.60;;;;;;;;;;5020442;28;20033;-77
2022/01/07 08:26:01;;;;;;;11.63;5.82;;;;;;;;;;5024095;28;20037;-78
2022/01/07 08:28:32;;;;;;;10.93;5.65;;;;;;;;;;5023247;28;20033;-78
2022/01/07 08:36:20;;;;;;;9.43;5.82;;;;;;;;;;5022957;28;20044;-78
2022/01/07 08:38:48;;;;;;;10.40;6.00;;;;;;;;;;5022178;28;20049;-78
2022/01/07 08:41:14;;;;;;;11.25;6.15;;;;;;;;;;5021866;28;20064;-78
2022/01/07 08:43:40;;;;;;;8.55;5.57;;;;;;;;;;5022680;28;20033;-78
2022/01/07 08:46:07;;;;;;;9.07;5.32;;;;;;;;;;5022879;28;20030;-78
2022/01/07 08:48:35;;;;;;;7.63;5.10;;;;;;;;;;5023053;28;20022;-78
2022/01/07 08:51:01;;;;;;;9.68;5.32;;;;;;;;;;5020086;28;20026;-78
2022/01/07 08:53:29;;;;;;;9.45;5.05;;;;;;;;;;5016820;28;20048;-77
2022/01/07 08:55:55;;;;;;;7.38;4.68;;;;;;;;;;5018215;28;20042;-77
2022/01/07 08:58:21;;;;;;;9.50;5.30;;;;;;;;;;5016826;28;20060;-78
2022/01/07 09:00:48;;;;;;;9.30;4.80;;;;;;;;;;5018163;28;20022;-78
2022/01/07 09:03:14;;;;;;;8.55;4.97;;;;;;;;;;5017696;28;20038;-78
2022/01/07 09:05:40;;;;;;;9.45;5.03;;;;;;;;;;5017743;28;20026;-78
2022/01/07 09:08:09;;;;;;;9.07;5.38;;;;;;;;;;5017616;28;20026;-78
2022/01/07 09:10:35;;;;;;;8.80;5.85;;;;;;;;;;5015450;28;20068;-78
2022/01/07 09:13:03;;;;;;;8.07;4.85;;;;;;;;;;5017570;28;20046;-78
2022/01/07 09:15:29;;;;;;;11.93;5.50;;;;;;;;;;5018037;28;20090;-78
2022/01/07 09:17:55;;;;;;;11.13;5.10;;;;;;;;;;5018646;28;20025;-78
2022/01/07 09:20:21;;;;;;;8.48;5.20;;;;;;;;;;5017788;28;20053;-78
2022/01/07 09:22:48;;;;;;;12.60;6.75;;;;;;;;;;5017463;28;20462;-78
2022/01/07 09:25:16;;;;;;;9.35;5.50;;;;;;;;;;5016028;28;20178;-78
2022/01/07 09:27:42;;;;;;;9.75;5.68;;;;;;;;;;5018238;28;20034;-78
2022/01/07 09:30:09;;;;;;;8.45;4.82;;;;;;;;;;5018606;28;20453;-78
2022/01/07 09:32:35;;;;;;;9.13;5.50;;;;;;;;;;5017778;28;20101;-78
2022/01/07 09:35:01;;;;;;;9.52;5.50;;;;;;;;;;5021891;28;20435;-78
2022/01/07 09:37:27;;;;;;;8.40;5.28;;;;;;;;;;5021261;28;20026;-78
2022/01/07 09:39:53;;;;;;;8.63;4.90;;;;;;;;;;5020630;28;20110;-78
2022/01/07 09:42:19;;;;;;;11.80;5.35;;;;;;;;;;5022536;28;20083;-78
2022/01/07 09:44:45;;;;;;;8.35;5.05;;;;;;;;;;5021908;28;20022;-79
2022/01/07 09:47:12;;;;;;;9.35;4.90;;;;;;;;;;5021814;28;20397;-78
2022/01/07 09:49:39;;;;;;;9.73;5.32;;;;;;;;;;5021823;28;20045;-78
2022/01/07 09:52:05;;;;;;;9.27;4.57;;;;;;;;;;5022102;28;20033;-78
2022/01/07 09:54:36;;;;;;;9.02;5.00;;;;;;;;;;5022451;28;20046;-78
2022/01/07 09:57:02;;;;;;;9.80;4.50;;;;;;;;;;5022898;28;20084;-79
2022/01/07 09:59:28;;;;;;;7.97;4.68;;;;;;;;;;5022684;28;20369;-79
2022/01/07 10:01:57;;;;;;;9.57;5.22;;;;;;;;;;5022459;28;20030;-79
2022/01/07 10:04:27;;;;;;;10.93;5.25;;;;;;;;;;5019423;28;20471;-78
2022/01/07 10:07:10;;;;;;;8.98;4.75;;;;;;;;;;5021155;28;20034;-78
2022/01/07 10:09:36;;;;;;;;;;;;;;;;;;5023157;28;20032;-78
2022/01/07 10:12:03;;;;;;;8.70;4.47;;;;;;;;;;5022683;28;20338;-78
2022/01/07 10:14:30;;;;;;;7.63;4.10;;;;;;;;;;5022622;28;20042;-78
2022/01/07 10:17:01;;;;;;;9.05;4.28;;;;;;;;;;5021278;28;20080;-78
2022/01/07 10:19:30;;;;;;;6.90;3.55;;;;;;;;;;5023289;28;20500;-78
2022/01/07 10:22:00;;;;;;;8.02;3.00;;;;;;;;;;5023265;28;20109;-78
2022/01/07 10:24:26;;;;;;;6.90;3.60;;;;;;;;;;5020480;28;20033;-78
2022/01/07 10:27:09;;;;;;;5.53;2.63;;;;;;;;;;5020747;28;20030;-78
2022/01/07 10:29:42;;;;;;;8.07;3.42;;;;;;;;;;5022400;28;20080;-78
2022/01/07 10:32:08;;;;;;;;;;;;;;;;;;5024529;28;20037;-79
2022/01/07 10:34:34;;;;;;;8.02;2.83;;;;;;;;;;5023174;28;19906;-79
2022/01/07 10:37:11;;;;;;;7.97;3.38;;;;;;;;;;5024203;28;20033;-78
2022/01/07 10:39:37;;;;;;;8.52;3.50;;;;;;;;;;5024695;28;20030;-81
2022/01/07 10:42:04;;;;;;;7.35;3.45;;;;;;;;;;5020487;28;20037;-78
2022/01/07 10:44:30;;;;;;;8.52;3.67;;;;;;;;;;5019990;28;20022;-80
2022/01/07 10:46:56;;;;;;;5.40;3.08;;;;;;;;;;5019821;28;20558;-79
2022/01/07 10:49:31;;;;;;;6.57;3.40;;;;;;;;;;5021851;28;20028;-78
2022/01/07 10:51:57;;;;;;;6.20;3.13;;;;;;;;;;5023710;28;20022;-79
2022/01/07 10:54:23;;;;;;;7.47;2.80;;;;;;;;;;5022796;28;20042;-79
2022/01/07 10:56:51;;;;;;;8.85;4.03;;;;;;;;;;5022022;28;20037;-80
2022/01/07 10:59:21;;;;;;;6.53;3.50;;;;;;;;;;5022686;28;20026;-79
2022/01/07 11:01:51;;;;;;;6.00;3.35;;;;;;;;;;5023304;28;20026;-79
2022/01/07 11:04:17;;;;;;;6.45;3.10;;;;;;;;;;5022090;28;20018;-80
2022/01/07 11:06:44;;;;;;;8.18;3.83;;;;;;;;;;5023479;28;20101;-79
2022/01/07 11:09:12;;;;;;;8.48;4.05;;;;;;;;;;5025656;28;20048;-79
2022/01/07 11:11:51;;;;;;;9.35;4.25;;;;;;;;;;5020967;28;20404;-78
2022/01/07 11:14:19;;;;;;;8.27;3.95;;;;;;;;;;5019888;28;20101;-80
2022/01/07 11:16:45;;;;;;;7.43;3.78;;;;;;;;;;5020278;28;20033;-79
2022/01/07 11:19:12;;;;;;;7.15;4.15;;;;;;;;;;5019440;28;20524;-79
2022/01/07 11:21:40;;;;;;;5.80;3.25;;;;;;;;;;5018063;28;20037;-79
2022/01/07 11:24:27;;;;;;;5.30;2.60;;;;;;;;;;5018361;28;20495;-79
2022/01/07 11:27:03;;;;;;;5.18;2.85;;;;;;;;;;5021882;28;20060;-79
2022/01/07 11:29:30;;;;;;;6.55;3.22;;;;;;;;;;5027025;28;20041;-79
2022/01/07 11:32:16;;;;;;;5.80;3.45;;;;;;;;;;5026799;28;20032;-78
2022/01/07 11:34:42;;;;;;;6.95;3.90;;;;;;;;;;5026508;28;20029;-79
2022/01/07 11:37:26;;;;;;;6.45;3.65;;;;;;;;;;5028276;28;20026;-80
2022/01/07 11:39:55;;;;;;;7.30;3.92;;;;;;;;;;5026660;28;20033;-79
2022/01/07 11:42:48;;;;;;;6.85;3.20;;;;;;;;;;5027280;28;20029;-80
2022/01/07 11:45:28;;;;;;;6.45;3.58;;;;;;;;;;5026208;28;20034;-79
2022/01/07 11:47:58;;;;;;;5.82;3.50;;;;;;;;;;5025751;28;20026;-79
2022/01/07 11:50:25;;;;;;;6.90;3.50;;;;;;;;;;5027285;28;20036;-78
2022/01/07 11:53:00;;;;;;;7.05;3.00;;;;;;;;;;5025650;28;20014;-78
2022/01/07 11:55:36;;;;;;;11.73;6.47;;;;;;;;;;5025586;28;20048;-79
2022/01/07 11:58:06;;;;;;;7.00;3.47;;;;;;;;;;5025699;28;20026;-79
2022/01/07 12:00:51;;;;;;;7.25;3.90;;;;;;;;;;5025998;28;20049;-80
2022/01/07 12:03:37;;;;;;;7.55;3.72;;;;;;;;;;5026342;28;20030;-79
2022/01/07 12:06:25;;;;;;;7.05;4.00;;;;;;;;;;5025826;28;20034;-80
2022/01/07 12:09:09;;;;;;;9.95;4.43;;;;;;;;;;5027575;28;20018;-79
2022/01/07 12:11:42;;;;;;;7.50;4.03;;;;;;;;;;5025563;28;20026;-79
2022/01/07 12:14:23;;;;;;;7.85;3.90;;;;;;;;;;5027402;28;20029;-80
2022/01/07 12:16:51;;;;;;;7.43;4.25;;;;;;;;;;5027367;28;20026;-78
2022/01/07 12:19:18;;;;;;;7.35;4.38;;;;;;;;;;5025888;28;20025;-79
2022/01/07 12:21:44;;;;;;;8.05;4.70;;;;;;;;;;5027759;28;20044;-79
2022/01/07 12:24:12;;;;;;;6.82;4.13;;;;;;;;;;5027342;28;20048;-78
2022/01/07 12:26:39;;;;;;;9.27;4.43;;;;;;;;;;5027162;28;20056;-79
2022/01/07 12:29:06;;;;;;;7.70;3.47;;;;;;;;;;5026379;28;20060;-80
2022/01/07 12:31:32;;;;;;;10.73;5.03;;;;;;;;;;5026382;28;20041;-80
2022/01/07 12:33:59;;;;;;;7.55;3.88;;;;;;;;;;5025307;28;20029;-79
2022/01/07 12:36:25;;;;;;;7.00;3.60;;;;;;;;;;5027456;28;20030;-80
2022/01/07 12:39:01;;;;;;;7.72;3.15;;;;;;;;;;5026353;28;20033;-79
2022/01/07 12:41:27;;;;;;;8.25;4.20;;;;;;;;;;5024349;28;20088;-78
2022/01/07 12:44:14;;;;;;;7.50;3.53;;;;;;;;;;5024892;28;20448;-78
2022/01/07 12:46:41;;;;;;;7.47;3.67;;;;;;;;;;5021134;28;20030;-79
2022/01/07 12:49:07;;;;;;;7.18;3.67;;;;;;;;;;5024221;28;20022;-79
2022/01/07 12:51:35;;;;;;;7.47;3.55;;;;;;;;;;5023845;28;20054;-79
2022/01/07 12:54:06;;;;;;;8.40;4.10;;;;;;;;;;5027188;28;20034;-78
2022/01/07 12:56:34;;;;;;;7.35;3.78;;;;;;;;;;5025782;28;20386;-78
2022/01/07 12:59:11;;;;;;;10.07;4.40;;;;;;;;;;5024684;28;20036;-78
2022/01/07 13:01:37;;;;;;;7.70;3.38;;;;;;;;;;5025620;28;20036;-79
2022/01/07 13:04:10;;;;;;;6.18;3.08;;;;;;;;;;5027018;28;20022;-79
2022/01/07 13:06:47;;;;;;;7.28;3.78;;;;;;;;;;5027286;28;20029;-80
2022/01/07 13:09:15;;;;;;;8.18;3.55;;;;;;;;;;5026248;28;20030;-79
2022/01/07 13:11:41;;;;;;;5.78;3.50;;;;;;;;;;5028169;28;20488;-80
2022/01/07 13:14:08;;;;;;;7.60;4.45;;;;;;;;;;5026768;28;20073;-79
2022/01/07 13:16:35;;;;;;;10.63;5.43;;;;;;;;;;5026485;28;20413;-79
2022/01/07 13:19:03;;;;;;;9.85;5.45;;;;;;;;;;5024002;28;20037;-79
2022/01/07 13:21:29;;;;;;;7.75;3.63;;;;;;;;;;5026982;28;20048;-79
2022/01/07 13:23:56;;;;;;;7.72;3.75;;;;;;;;;;5025053;28;20029;-79
2022/01/07 13:26:23;;;;;;;7.05;3.28;;;;;;;;;;5025284;28;20026;-78
2022/01/07 13:28:51;;;;;;;6.70;4.00;;;;;;;;;;5026851;28;20022;-79
2022/01/07 13:31:19;;;;;;;7.60;3.70;;;;;;;;;;5024985;28;20054;-80
2022/01/07 13:33:45;;;;;;;6.65;3.30;;;;;;;;;;5024750;28;20052;-78
2022/01/07 13:36:12;;;;;;;6.80;4.07;;;;;;;;;;5025393;28;20030;-78
2022/01/07 13:38:39;;;;;;;10.43;3.55;;;;;;;;;;5026193;28;20033;-79
2022/01/07 13:41:13;;;;;;;7.18;3.60;;;;;;;;;;5026454;28;20017;-77
2022/01/07 13:43:42;;;;;;;7.43;4.43;;;;;;;;;;5024656;28;20042;-80
2022/01/07 13:46:08;;;;;;;8.75;5.05;;;;;;;;;;5024555;28;20029;-77
2022/01/07 13:48:47;;;;;;;8.88;4.65;;;;;;;;;;5024805;28;20026;-80
2022/01/07 13:51:13;;;;;;;10.45;4.95;;;;;;;;;;5024984;28;20022;-79
2022/01/07 13:53:39;;;;;;;10.15;5.45;;;;;;;;;;5027232;28;20029;-79
2022/01/07 13:56:10;;;;;;;9.88;4.95;;;;;;;;;;5028300;28;20061;-79
2022/01/07 13:58:36;;;;;;;10.52;5.43;;;;;;;;;;5028675;28;20076;-78
2022/01/07 14:01:06;;;;;;;8.68;5.07;;;;;;;;;;5026887;28;20085;-78
2022/01/07 14:03:49;;;;;;;9.50;4.47;;;;;;;;;;5027106;28;20104;-79
2022/01/07 14:06:19;;;;;;;7.97;4.18;;;;;;;;;;5025998;28;20045;-78
2022/01/07 14:08:45;;;;;;;8.80;3.83;;;;;;;;;;5027523;28;20083;-79
2022/01/07 14:11:12;;;;;;;8.93;4.32;;;;;;;;;;5026359;28;20022;-79
2022/01/07 14:13:38;;;;;;;7.72;4.13;;;;;;;;;;5025477;28;20025;-80
2022/01/07 14:16:04;;;;;;;7.82;4.05;;;;;;;;;;5026015;28;20029;-78
2022/01/07 14:18:33;;;;;;;6.57;3.83;;;;;;;;;;5027385;28;20156;-80
2022/01/07 14:21:03;;;;;;;9.00;4.28;;;;;;;;;;5026770;28;20033;-80
2022/01/07 14:23:36;;;;;;;8.20;4.25;;;;;;;;;;5026204;28;20134;-78
2022/01/07 14:26:05;;;;;;;9.02;4.18;;;;;;;;;;5026986;28;20058;-78
2022/01/07 14:28:32;;;;;;;8.00;3.78;;;;;;;;;;5027550;28;20030;-79
2022/01/07 14:31:01;;;;;;;7.25;4.03;;;;;;;;;;5025973;28;20101;-79
2022/01/07 14:33:30;;;;;;;8.32;4.38;;;;;;;;;;5025662;28;20086;-78
2022/01/07 14:35:59;;;;;;;8.60;4.20;;;;;;;;;;5027121;28;20022;-79
2022/01/07 14:38:25;;;;;;;9.73;4.63;;;;;;;;;;5027567;28;20045;-79
2022/01/07 14:40:52;;;;;;;9.32;4.15;;;;;;;;;;5025681;28;20030;-79
2022/01/07 14:43:18;;;;;;;8.95;4.68;;;;;;;;;;5025180;28;20022;-78
2022/01/07 14:45:45;;;;;;;8.50;4.25;;;;;;;;;;5026177;28;20094;-80
2022/01/07 14:48:11;;;;;;;8.15;3.50;;;;;;;;;;5025117;28;20030;-79
2022/01/07 14:50:37;;;;;;;8.57;3.78;;;;;;;;;;5025687;28;20033;-79